createdAt,value
2023-12-24T00:00:14.444Z,100688.34
2023-12-24T00:02:41.595Z,100689.22
2023-12-24T00:05:08.918Z,100678.72
2023-12-24T00:07:36.149Z,100676.06
2023-12-24T00:10:03.281Z,100683.00
2023-12-24T00:12:30.350Z,100656.59
2023-12-24T00:14:57.479Z,100675.91
2023-12-24T00:17:24.729Z,100682.94
2023-12-24T00:19:51.887Z,100683.75
2023-12-24T00:22:18.974Z,100689.03
2023-12-24T00:24:46.611Z,100689.03
2023-12-24T00:27:13.682Z,100698.69
2023-12-24T00:29:41.118Z,100703.84
2023-12-24T00:32:10.494Z,100701.22
2023-12-24T00:34:37.500Z,100703.84
2023-12-24T00:37:05.137Z,100694.19
2023-12-24T00:39:32.160Z,100687.28
2023-12-24T00:41:59.378Z,100683.75
2023-12-24T00:44:26.548Z,100671.47
2023-12-24T00:46:53.622Z,100662.69
2023-12-24T00:49:20.703Z,100649.47
2023-12-24T00:51:47.685Z,100645.09
2023-12-24T00:54:14.814Z,100624.88
2023-12-24T00:56:41.878Z,100628.38
2023-12-24T00:59:08.995Z,100609.06
2023-12-24T01:01:36.011Z,100602.06
2023-12-24T01:04:03.218Z,100595.88
2023-12-24T01:06:30.751Z,100601.16
2023-12-24T01:08:57.830Z,100574.00
2023-12-24T01:11:24.911Z,100574.97
2023-12-24T01:13:52.046Z,100562.72
2023-12-24T01:16:19.067Z,100553.91
2023-12-24T01:18:47.673Z,100565.38
2023-12-24T01:21:14.752Z,100566.19
2023-12-24T01:23:41.952Z,100578.50
2023-12-24T01:26:09.110Z,100576.72
2023-12-24T01:28:36.975Z,100570.53
2023-12-24T01:31:04.157Z,100564.38
2023-12-24T01:33:31.243Z,100573.03
2023-12-24T01:35:58.327Z,100585.34
2023-12-24T01:38:25.542Z,100573.94
2023-12-24T01:40:52.878Z,100573.94
2023-12-24T01:43:20.138Z,100570.47
2023-12-24T01:45:47.151Z,100569.56
2023-12-24T01:48:18.268Z,100588.84
2023-12-24T01:50:48.517Z,100581.00
2023-12-24T01:53:18.377Z,100583.66
2023-12-24T01:55:49.030Z,100587.31
2023-12-24T01:58:17.027Z,100591.00
2023-12-24T02:00:44.283Z,100590.22
2023-12-24T02:03:11.459Z,100593.03
2023-12-24T02:05:38.768Z,100579.97
2023-12-24T02:08:08.793Z,100573.16
2023-12-24T02:10:36.660Z,100569.81
2023-12-24T02:13:04.069Z,100572.66
2023-12-24T02:15:31.220Z,100560.47
2023-12-24T02:18:00.774Z,100557.97
2023-12-24T02:20:29.530Z,100555.41
2023-12-24T02:22:56.584Z,100547.59
2023-12-24T02:25:24.639Z,100556.44
2023-12-24T02:28:10.895Z,100549.53
2023-12-24T02:30:45.148Z,100552.22
2023-12-24T02:33:16.594Z,100542.69
2023-12-24T02:35:47.138Z,100539.22
2023-12-24T02:38:15.322Z,100536.72
2023-12-24T02:40:42.381Z,100522.69
2023-12-24T02:43:12.278Z,100522.75
2023-12-24T02:45:41.175Z,100515.81
2023-12-24T02:48:08.368Z,100517.50
2023-12-24T02:50:35.684Z,100508.78
2023-12-24T02:53:03.064Z,100500.88
2023-12-24T02:55:30.248Z,100502.66
2023-12-24T02:57:57.239Z,100498.25
2023-12-24T03:00:24.253Z,100494.66
2023-12-24T03:02:52.776Z,100486.78
2023-12-24T03:05:20.163Z,100486.69
2023-12-24T03:07:47.213Z,100480.53
2023-12-24T03:10:14.449Z,100470.78
2023-12-24T03:12:41.568Z,100482.97
2023-12-24T03:15:09.787Z,100477.69
2023-12-24T03:17:36.960Z,100475.00
2023-12-24T03:20:05.092Z,100468.75
2023-12-24T03:22:32.325Z,100461.69
2023-12-24T03:25:00.813Z,100460.72
2023-12-24T03:27:27.989Z,100454.56
2023-12-24T03:29:55.158Z,100458.09
2023-12-24T03:32:23.177Z,100466.00
2023-12-24T03:34:50.315Z,100463.34
2023-12-24T03:37:17.361Z,100455.47
2023-12-24T03:39:44.420Z,100452.00
2023-12-24T03:42:12.527Z,100451.09
2023-12-24T03:44:39.626Z,100453.72
2023-12-24T03:47:07.117Z,100440.56
2023-12-24T03:49:34.238Z,100443.19
2023-12-24T03:52:01.324Z,100437.06
2023-12-24T03:54:28.369Z,100429.13
2023-12-24T03:56:55.478Z,100427.28
2023-12-24T03:59:22.648Z,100430.84
2023-12-24T04:01:49.768Z,100429.94
2023-12-24T04:04:16.852Z,100429.00
2023-12-24T04:06:47.430Z,100432.47
2023-12-24T04:09:14.508Z,100425.41
2023-12-24T04:11:42.090Z,100419.22
2023-12-24T04:14:09.679Z,100416.59
2023-12-24T04:16:36.826Z,100409.53
2023-12-24T04:19:04.007Z,100401.63
2023-12-24T04:21:34.232Z,100404.25
2023-12-24T04:24:01.627Z,100412.94
2023-12-24T04:26:28.751Z,100418.19
2023-12-24T04:28:56.063Z,100409.47
2023-12-24T04:31:23.452Z,100403.22
2023-12-24T04:33:50.623Z,100412.84
2023-12-24T04:36:20.804Z,100401.47
2023-12-24T04:38:48.376Z,100403.16
2023-12-24T04:41:19.480Z,100404.03
2023-12-24T04:43:47.150Z,100400.53
2023-12-24T04:46:14.227Z,100397.00
2023-12-24T04:51:10.652Z,100395.19
2023-12-24T04:53:37.811Z,100399.53
2023-12-24T04:56:05.657Z,100393.38
2023-12-24T04:58:32.738Z,100389.88
2023-12-24T05:01:03.082Z,100395.09
2023-12-24T05:03:32.601Z,100389.88
2023-12-24T05:05:59.971Z,100391.56
2023-12-24T05:08:27.034Z,100387.94
2023-12-24T05:10:54.848Z,100387.09
2023-12-24T05:13:22.438Z,100382.69
2023-12-24T05:15:49.556Z,100387.88
2023-12-24T05:18:17.383Z,100380.00
2023-12-24T05:20:44.429Z,100372.91
2023-12-24T05:23:11.560Z,100371.19
2023-12-24T05:25:39.062Z,100371.16
2023-12-24T05:28:06.380Z,100368.53
2023-12-24T05:30:35.765Z,100373.78
2023-12-24T05:33:03.171Z,100373.78
2023-12-24T05:35:30.330Z,100372.09
2023-12-24T05:37:57.370Z,100379.97
2023-12-24T05:40:24.698Z,100379.16
2023-12-24T05:42:51.844Z,100384.41
2023-12-24T05:45:19.069Z,100380.88
2023-12-24T05:47:46.203Z,100385.22
2023-12-24T05:50:13.451Z,100369.44
2023-12-24T05:52:42.494Z,100373.78
2023-12-24T05:55:11.567Z,100373.72
2023-12-24T05:57:39.006Z,100368.47
2023-12-24T06:00:07.354Z,100371.09
2023-12-24T06:02:41.987Z,100370.19
2023-12-24T06:05:09.210Z,100367.50
2023-12-24T06:07:36.206Z,100365.75
2023-12-24T06:10:03.469Z,100365.75
2023-12-24T06:12:31.899Z,100362.97
2023-12-24T06:14:59.431Z,100362.19
2023-12-24T06:17:26.824Z,100373.50
2023-12-24T06:19:54.143Z,100358.59
2023-12-24T06:22:21.245Z,100366.44
2023-12-24T06:24:48.250Z,100361.09
2023-12-24T06:27:15.268Z,100361.91
2023-12-24T06:29:42.327Z,100358.47
2023-12-24T06:32:09.369Z,100359.41
2023-12-24T06:34:36.421Z,100363.72
2023-12-24T06:37:03.612Z,100354.06
2023-12-24T06:39:30.633Z,100354.94
2023-12-24T06:41:57.605Z,100348.75
2023-12-24T06:44:24.768Z,100349.56
2023-12-24T06:46:51.887Z,100348.72
2023-12-24T06:49:20.308Z,100341.66
2023-12-24T06:51:47.385Z,100345.13
2023-12-24T06:54:14.560Z,100346.84
2023-12-24T06:56:41.633Z,100345.91
2023-12-24T06:59:08.732Z,100349.47
2023-12-24T07:01:35.901Z,100341.56
2023-12-24T07:04:03.021Z,100342.41
2023-12-24T07:06:30.153Z,100346.69
2023-12-24T07:08:57.148Z,100354.59
2023-12-24T07:11:24.212Z,100351.97
2023-12-24T07:13:51.239Z,100355.41
2023-12-24T07:16:18.315Z,100344.84
2023-12-24T07:18:45.503Z,100343.06
2023-12-24T07:21:12.615Z,100334.31
2023-12-24T07:23:39.685Z,100334.19
2023-12-24T07:26:07.782Z,100337.72
2023-12-24T07:28:35.950Z,100340.34
2023-12-24T07:31:11.101Z,100348.25
2023-12-24T07:33:38.151Z,100348.16
2023-12-24T07:36:05.571Z,100344.69
2023-12-24T07:38:32.937Z,100341.91
2023-12-24T07:41:00.035Z,100342.81
2023-12-24T07:43:28.322Z,100344.53
2023-12-24T07:45:55.382Z,100342.81
2023-12-24T07:48:22.586Z,100344.53
2023-12-24T07:50:49.600Z,100330.47
2023-12-24T07:53:16.997Z,100336.50
2023-12-24T07:55:44.052Z,100340.91
2023-12-24T07:58:11.065Z,100338.22
2023-12-24T08:00:38.071Z,100332.84
2023-12-24T08:03:05.200Z,100331.03
2023-12-24T08:05:32.811Z,100327.47
2023-12-24T08:07:59.982Z,100330.03
2023-12-24T08:10:27.253Z,100318.59
2023-12-24T08:13:01.735Z,100322.88
2023-12-24T08:15:35.222Z,100331.59
2023-12-24T08:18:02.611Z,100327.94
2023-12-24T08:20:29.873Z,100318.19
2023-12-24T08:22:57.071Z,100333.97
2023-12-24T08:25:24.525Z,100333.03
2023-12-24T08:27:52.670Z,100334.75
2023-12-24T08:30:20.115Z,100324.22
2023-12-24T08:32:47.413Z,100321.53
2023-12-24T08:35:14.863Z,100317.00
2023-12-24T08:37:42.025Z,100319.69
2023-12-24T08:40:09.687Z,100312.63
2023-12-24T08:42:36.726Z,100318.78
2023-12-24T08:45:04.249Z,100310.72
2023-12-24T08:47:33.636Z,100313.06
2023-12-24T08:50:00.972Z,100312.72
2023-12-24T08:52:28.431Z,100314.94
2023-12-24T08:54:55.457Z,100324.41
2023-12-24T08:57:22.494Z,100328.56
2023-12-24T08:59:49.582Z,100323.16
2023-12-24T09:02:16.723Z,100327.41
2023-12-24T09:04:47.487Z,100329.94
2023-12-24T09:07:16.240Z,100330.66
2023-12-24T09:09:43.547Z,100340.28
2023-12-24T09:12:10.925Z,100335.81
2023-12-24T09:14:38.017Z,100339.31
2023-12-24T09:17:05.368Z,100337.66
2023-12-24T09:19:32.521Z,100350.88
2023-12-24T09:21:59.652Z,100342.19
2023-12-24T09:24:26.762Z,100337.88
2023-12-24T09:26:53.856Z,100334.41
2023-12-24T09:29:22.482Z,100338.88
2023-12-24T09:31:49.900Z,100342.41
2023-12-24T09:34:17.161Z,100322.25
2023-12-24T09:36:44.256Z,100337.16
2023-12-24T09:39:11.863Z,100331.94
2023-12-24T09:41:39.119Z,100325.75
2023-12-24T09:44:09.746Z,100314.22
2023-12-24T09:46:36.791Z,100322.13
2023-12-24T09:49:03.996Z,100320.31
2023-12-24T09:51:36.413Z,100309.63
2023-12-24T09:54:05.512Z,100309.56
2023-12-24T09:56:34.230Z,100311.34
2023-12-24T09:59:05.601Z,100309.50
2023-12-24T10:01:47.929Z,100316.50
2023-12-24T10:04:15.428Z,100306.75
2023-12-24T10:06:57.383Z,100312.81
2023-12-24T10:09:42.282Z,100307.56
2023-12-24T10:12:12.812Z,100306.56
2023-12-24T10:14:43.970Z,100308.09
2023-12-24T10:17:13.510Z,100311.47
2023-12-24T10:19:40.610Z,100308.81
2023-12-24T10:22:10.057Z,100310.53
2023-12-24T10:24:42.635Z,100306.09
2023-12-24T10:27:12.987Z,100297.28
2023-12-24T10:29:42.583Z,100289.25
2023-12-24T10:32:12.510Z,100301.53
2023-12-24T10:34:41.022Z,100300.66
2023-12-24T10:37:27.809Z,100301.41
2023-12-24T10:39:55.400Z,100305.88
2023-12-24T10:42:22.565Z,100298.78
2023-12-24T10:44:49.695Z,100305.88
2023-12-24T10:47:16.984Z,100309.34
2023-12-24T10:49:44.039Z,100316.34
2023-12-24T10:52:11.585Z,100308.38
2023-12-24T10:54:42.008Z,100309.97
2023-12-24T10:57:53.541Z,100293.16
2023-12-24T11:00:22.007Z,100286.09
2023-12-24T11:02:51.326Z,100280.75
2023-12-24T11:05:48.395Z,100278.84
2023-12-24T11:08:31.562Z,100283.19
2023-12-24T11:11:05.543Z,100283.00
2023-12-24T11:13:32.928Z,100265.44
2023-12-24T11:16:02.695Z,100265.34
2023-12-24T11:18:50.144Z,100256.41
2023-12-24T11:21:22.368Z,100259.78
2023-12-24T11:24:15.398Z,100265.81
2023-12-24T11:26:53.201Z,100263.81
2023-12-24T11:29:43.981Z,100262.03
2023-12-24T11:32:26.517Z,100264.50
2023-12-24T11:34:59.917Z,100253.84
2023-12-24T11:37:27.912Z,100250.34
2023-12-24T11:40:03.071Z,100247.56
2023-12-24T11:42:51.677Z,100248.38
2023-12-24T11:45:33.129Z,100234.25
2023-12-24T11:48:02.877Z,100242.88
2023-12-24T11:50:30.852Z,100235.88
2023-12-24T11:52:58.695Z,100231.31
2023-12-24T11:55:27.741Z,100213.72
2023-12-24T11:57:55.118Z,100214.69
2023-12-24T12:00:29.716Z,100219.97
2023-12-24T12:03:01.111Z,100224.53
2023-12-24T12:05:30.303Z,100229.81
2023-12-24T12:07:57.920Z,100221.03
2023-12-24T12:10:24.985Z,100223.69
2023-12-24T12:12:52.492Z,100208.78
2023-12-24T12:15:24.751Z,100215.75
2023-12-24T12:17:52.534Z,100208.69
2023-12-24T12:20:20.306Z,100192.00
2023-12-24T12:22:50.527Z,100191.13
2023-12-24T12:25:18.260Z,100199.06
2023-12-24T12:27:47.767Z,100180.78
2023-12-24T12:30:15.932Z,100181.69
2023-12-24T12:32:43.158Z,100167.66
2023-12-24T12:35:12.738Z,100176.63
2023-12-24T12:37:39.824Z,100170.50
2023-12-24T12:40:08.847Z,100167.78
2023-12-24T12:42:42.929Z,100167.78
2023-12-24T12:45:12.353Z,100160.66
2023-12-24T12:47:40.243Z,100156.25
2023-12-24T12:50:08.911Z,100152.66
2023-12-24T12:52:36.187Z,100155.25
2023-12-24T12:55:09.315Z,100143.81
2023-12-24T12:57:42.738Z,100138.53
2023-12-24T13:00:14.633Z,100139.47
2023-12-24T13:02:43.490Z,100135.91
2023-12-24T13:05:34.180Z,100120.06
2023-12-24T13:08:14.077Z,100119.13
2023-12-24T13:10:41.706Z,100112.94
2023-12-24T13:13:21.845Z,100115.50
2023-12-24T13:16:04.640Z,100116.44
2023-12-24T13:18:31.996Z,100113.72
2023-12-24T13:21:05.017Z,100122.50
2023-12-24T13:23:33.232Z,100116.44
2023-12-24T13:26:05.218Z,100132.22
2023-12-24T13:28:34.647Z,100120.78
2023-12-24T13:31:02.984Z,100128.66
2023-12-24T13:33:30.275Z,100116.28
2023-12-24T13:35:57.406Z,100130.28
2023-12-24T13:38:24.539Z,100131.91
2023-12-24T13:40:53.307Z,100125.66
2023-12-24T13:43:20.794Z,100122.06
2023-12-24T13:45:47.981Z,100136.06
2023-12-24T13:48:15.337Z,100132.56
2023-12-24T13:50:43.402Z,100143.84
2023-12-24T13:53:19.422Z,100127.91
2023-12-24T13:55:59.182Z,100124.31
2023-12-24T13:58:27.925Z,100121.56
2023-12-24T14:00:55.315Z,100122.38
2023-12-24T14:03:23.507Z,100114.22
2023-12-24T14:05:52.279Z,100105.28
2023-12-24T14:08:22.339Z,100101.66
2023-12-24T14:10:50.552Z,100105.91
2023-12-24T14:13:18.038Z,100111.09
2023-12-24T14:15:45.085Z,100099.59
2023-12-24T14:18:12.353Z,100098.59
2023-12-24T14:20:40.031Z,100085.31
2023-12-24T14:23:07.244Z,100079.13
2023-12-24T14:25:34.275Z,100086.03
2023-12-24T14:28:01.382Z,100085.00
2023-12-24T14:30:28.476Z,100062.97
2023-12-24T14:32:56.059Z,100074.31
2023-12-24T14:35:23.518Z,100069.72
2023-12-24T14:37:50.569Z,100070.50
2023-12-24T14:40:19.577Z,100063.34
2023-12-24T14:42:46.661Z,100074.63
2023-12-24T14:45:13.987Z,100066.41
2023-12-24T14:47:41.108Z,100075.09
2023-12-24T14:50:08.613Z,100070.66
2023-12-24T14:52:35.677Z,100078.53
2023-12-24T14:55:04.071Z,100067.00
2023-12-24T14:57:32.948Z,100052.84
2023-12-24T15:00:21.601Z,100051.88
2023-12-24T15:02:49.001Z,100047.44
2023-12-24T15:05:16.154Z,100055.34
2023-12-24T15:07:43.432Z,100057.16
2023-12-24T15:10:10.893Z,100058.00
2023-12-24T15:12:37.998Z,100062.44
2023-12-24T15:15:06.502Z,100060.72
2023-12-24T15:17:34.471Z,100050.16
2023-12-24T15:20:02.029Z,100056.38
2023-12-24T15:22:29.254Z,100060.09
2023-12-24T15:25:01.466Z,100058.59
2023-12-24T15:27:29.643Z,100058.00
2023-12-24T15:29:57.025Z,100060.78
2023-12-24T15:32:25.632Z,100061.00
2023-12-24T15:34:53.084Z,100073.44
2023-12-24T15:37:20.140Z,100080.66
2023-12-24T15:39:47.171Z,100086.81
2023-12-24T15:42:16.496Z,100095.66
2023-12-24T15:44:43.776Z,100088.72
2023-12-24T15:47:10.931Z,100089.81
2023-12-24T15:49:38.026Z,100096.16
2023-12-24T15:52:07.951Z,100098.00
2023-12-24T15:54:37.792Z,100098.16
2023-12-24T15:57:09.495Z,100090.38
2023-12-24T15:59:36.961Z,100097.44
2023-12-24T16:02:04.168Z,100100.09
2023-12-24T16:04:31.339Z,100108.88
2023-12-24T16:06:58.928Z,100103.66
2023-12-24T16:09:26.552Z,100101.88
2023-12-24T16:11:55.676Z,100108.16
2023-12-24T16:14:22.747Z,100104.63
2023-12-24T16:16:50.108Z,100102.00
2023-12-24T16:19:17.475Z,100108.06
2023-12-24T16:21:44.547Z,100101.03
2023-12-24T16:24:11.991Z,100095.75
2023-12-24T16:26:41.282Z,100101.16
2023-12-24T16:29:35.056Z,100102.16
2023-12-24T16:32:02.957Z,100103.00
2023-12-24T16:34:30.083Z,100104.84
2023-12-24T16:37:01.936Z,100114.50
2023-12-24T16:39:29.481Z,100110.94
2023-12-24T16:41:56.567Z,100116.22
2023-12-24T16:44:23.914Z,100119.72
2023-12-24T16:46:51.192Z,100130.44
2023-12-24T16:49:18.374Z,100128.63
2023-12-24T16:51:45.469Z,100125.97
2023-12-24T16:54:12.453Z,100145.47
2023-12-24T16:56:42.398Z,100150.75
2023-12-24T16:59:09.551Z,100153.34
2023-12-24T17:01:36.583Z,100173.59
2023-12-24T17:04:03.804Z,100157.75
2023-12-24T17:06:30.850Z,100156.00
2023-12-24T17:08:57.951Z,100148.91
2023-12-24T17:11:25.956Z,100145.44
2023-12-24T17:13:52.991Z,100170.88
2023-12-24T17:16:20.104Z,100156.84
2023-12-24T17:18:47.597Z,100175.19
2023-12-24T17:21:15.054Z,100177.81
2023-12-24T17:23:42.198Z,100184.88
2023-12-24T17:26:09.674Z,100191.03
2023-12-24T17:28:36.778Z,100175.19
2023-12-24T17:31:09.205Z,100180.25
2023-12-24T17:33:37.037Z,100178.47
2023-12-24T17:36:04.742Z,100164.41
2023-12-24T17:38:31.975Z,100167.06
2023-12-24T17:40:58.992Z,100184.81
2023-12-24T17:43:26.339Z,100190.09
2023-12-24T17:45:53.397Z,100198.97
2023-12-24T17:48:22.776Z,100215.66
2023-12-24T17:50:50.460Z,100211.25
2023-12-24T17:53:19.217Z,100206.66
2023-12-24T17:55:46.555Z,100208.31
2023-12-24T17:58:13.926Z,100180.16
2023-12-24T18:00:40.960Z,100205.59
2023-12-24T18:03:09.509Z,100195.00
2023-12-24T18:05:36.730Z,100187.97
2023-12-24T18:08:05.050Z,100184.31
2023-12-24T18:10:32.184Z,100188.56
2023-12-24T18:12:59.286Z,100190.34
2023-12-24T18:15:26.450Z,100215.03
2023-12-24T18:17:54.574Z,100205.34
2023-12-24T18:20:21.822Z,100223.84
2023-12-24T18:22:49.353Z,100221.13
2023-12-24T18:25:16.752Z,100237.81
2023-12-24T18:27:43.839Z,100242.25
2023-12-24T18:30:11.310Z,100233.53
2023-12-24T18:32:38.677Z,100220.38
2023-12-24T18:35:06.372Z,100244.16
2023-12-24T18:37:33.530Z,100257.47
2023-12-24T18:40:00.570Z,100254.91
2023-12-24T18:42:30.930Z,100265.03
2023-12-24T18:44:57.992Z,100280.94
2023-12-24T18:47:25.151Z,100276.66
2023-12-24T18:49:52.231Z,100265.50
2023-12-24T18:52:19.220Z,100272.78
2023-12-24T18:54:48.160Z,100279.03
2023-12-24T18:57:15.498Z,100258.00
2023-12-24T18:59:43.280Z,100275.69
2023-12-24T19:02:10.565Z,100275.81
2023-12-24T19:04:38.095Z,100309.28
2023-12-24T19:07:08.087Z,100293.44
2023-12-24T19:09:35.739Z,100303.94
2023-12-24T19:12:02.950Z,100297.72
2023-12-24T19:14:30.010Z,100308.28
2023-12-24T19:16:57.047Z,100302.16
2023-12-24T19:19:24.512Z,100317.94
2023-12-24T19:21:51.871Z,100312.72
2023-12-24T19:24:23.097Z,100311.84
2023-12-24T19:26:50.507Z,100311.81
2023-12-24T19:29:17.622Z,100309.09
2023-12-24T19:31:44.689Z,100301.09
2023-12-24T19:34:11.785Z,100318.66
2023-12-24T19:36:38.945Z,100314.25
2023-12-24T19:39:06.001Z,100318.44
2023-12-24T19:41:33.095Z,100313.13
2023-12-24T19:44:00.261Z,100304.19
2023-12-24T19:46:27.313Z,100305.13
2023-12-24T19:48:54.927Z,100305.13
2023-12-24T19:51:23.654Z,100321.75
2023-12-24T19:53:52.850Z,100326.97
2023-12-24T19:56:20.184Z,100331.25
2023-12-24T19:58:50.165Z,100332.13
2023-12-24T20:01:17.465Z,100335.69
2023-12-24T20:03:44.673Z,100340.78
2023-12-24T20:06:12.382Z,100332.94
2023-12-24T20:08:39.471Z,100333.69
2023-12-24T20:11:07.558Z,100335.56
2023-12-24T20:13:34.801Z,100339.78
2023-12-24T20:16:01.916Z,100338.06
2023-12-24T20:18:29.095Z,100331.06
2023-12-24T20:20:57.642Z,100341.56
2023-12-24T20:23:25.234Z,100352.06
2023-12-24T20:25:52.296Z,100349.28
2023-12-24T20:28:19.389Z,100344.13
2023-12-24T20:30:46.601Z,100347.69
2023-12-24T20:33:15.749Z,100354.81
2023-12-24T20:35:44.665Z,100349.53
2023-12-24T20:38:11.870Z,100355.69
2023-12-24T20:40:39.120Z,100347.78
2023-12-24T20:43:06.631Z,100345.25
2023-12-24T20:45:34.208Z,100359.47
2023-12-24T20:48:01.385Z,100346.38
2023-12-24T20:50:29.475Z,100346.28
2023-12-24T20:52:56.597Z,100343.66
2023-12-24T20:55:24.197Z,100347.19
2023-12-24T20:57:51.262Z,100347.09
2023-12-24T21:00:18.654Z,100354.09
2023-12-24T21:02:45.664Z,100361.09
2023-12-24T21:05:15.893Z,100357.53
2023-12-24T21:07:45.964Z,100346.13
2023-12-24T21:10:12.996Z,100345.13
2023-12-24T21:12:40.031Z,100340.78
2023-12-24T21:15:09.319Z,100344.22
2023-12-24T21:17:42.552Z,100337.06
2023-12-24T21:20:13.968Z,100342.28
2023-12-24T21:22:41.032Z,100342.28
2023-12-24T21:25:08.108Z,100331.66
2023-12-24T21:27:35.128Z,100327.28
2023-12-24T21:30:02.438Z,100335.16
2023-12-24T21:32:29.559Z,100333.28
2023-12-24T21:34:56.696Z,100341.28
2023-12-24T21:37:23.694Z,100351.00
2023-12-24T21:39:50.727Z,100348.38
2023-12-24T21:42:17.747Z,100355.41
2023-12-24T21:44:44.877Z,100370.34
2023-12-24T21:47:12.069Z,100365.13
2023-12-24T21:49:39.397Z,100350.94
2023-12-24T21:52:06.733Z,100380.84
2023-12-24T21:54:37.078Z,100368.38
2023-12-24T21:57:04.491Z,100372.72
2023-12-24T21:59:31.587Z,100368.41
2023-12-24T22:01:58.712Z,100367.41
2023-12-24T22:04:25.751Z,100358.66
2023-12-24T22:06:52.771Z,100360.38
2023-12-24T22:09:19.794Z,100348.00
2023-12-24T22:11:46.830Z,100349.75
2023-12-24T22:14:13.822Z,100345.38
2023-12-24T22:16:40.912Z,100344.53
2023-12-24T22:19:08.137Z,100363.84
2023-12-24T22:21:43.377Z,100361.28
2023-12-24T22:24:10.526Z,100357.81
2023-12-24T22:26:37.546Z,100353.38
2023-12-24T22:29:04.592Z,100349.94
2023-12-24T22:31:31.786Z,100349.88
2023-12-24T22:33:59.404Z,100361.22
2023-12-24T22:36:26.505Z,100373.53
2023-12-24T22:38:57.064Z,100377.06
2023-12-24T22:41:26.110Z,100382.34
2023-12-24T22:43:53.043Z,100372.63
2023-12-24T22:46:20.125Z,100388.53
2023-12-24T22:48:47.247Z,100384.97
2023-12-24T22:51:17.841Z,100383.19
2023-12-24T22:53:45.013Z,100373.59
2023-12-24T22:56:12.753Z,100375.34
2023-12-24T22:58:39.938Z,100382.34
2023-12-24T23:01:11.676Z,100388.63
2023-12-24T23:03:40.138Z,100377.16
2023-12-24T23:06:13.876Z,100378.06
2023-12-24T23:08:41.769Z,100363.94
2023-12-24T23:11:08.977Z,100365.94
2023-12-24T23:13:36.031Z,100366.78
2023-12-24T23:16:03.353Z,100367.63
2023-12-24T23:18:30.692Z,100367.69
2023-12-24T23:20:57.830Z,100358.94
2023-12-24T23:23:25.027Z,100357.13
2023-12-24T23:25:52.109Z,100348.41
2023-12-24T23:28:20.054Z,100352.78
2023-12-24T23:30:47.612Z,100357.13
2023-12-24T23:33:14.823Z,100354.50
2023-12-24T23:35:43.045Z,100358.06
2023-12-24T23:38:12.431Z,100362.34
2023-12-24T23:40:39.462Z,100351.00
2023-12-24T23:43:06.538Z,100347.44
2023-12-24T23:45:33.564Z,100360.56
2023-12-24T23:48:02.272Z,100362.28
2023-12-24T23:50:31.507Z,100363.13
2023-12-24T23:52:58.623Z,100354.38
2023-12-24T23:55:25.571Z,100351.72
2023-12-24T23:57:52.814Z,100358.72
